sensor_id;sensor_type;location;lat;lon;timestamp;P1;durP1;ratioP1;P2;durP2;ratioP2
20397;SDS011;10358;49.590;11.030;2022-12-29T00:02:12;3.63;;;1.80;;
20397;SDS011;10358;49.590;11.030;2022-12-29T00:04:38;4.33;;;2.00;;
20397;SDS011;10358;49.590;11.030;2022-12-29T00:07:04;3.27;;;1.80;;
20397;SDS011;10358;49.590;11.030;2022-12-29T00:09:30;4.10;;;2.13;;
20397;SDS011;10358;49.590;11.030;2022-12-29T00:11:56;3.10;;;2.00;;
20397;SDS011;10358;49.590;11.030;2022-12-29T00:14:22;3.93;;;2.00;;
20397;SDS011;10358;49.590;11.030;2022-12-29T00:17:06;4.97;;;1.80;;
20397;SDS011;10358;49.590;11.030;2022-12-29T00:19:32;6.30;;;2.20;;
20397;SDS011;10358;49.590;11.030;2022-12-29T00:22:16;3.97;;;2.00;;
20397;SDS011;10358;49.590;11.030;2022-12-29T00:25:01;3.47;;;1.80;;
20397;SDS011;10358;49.590;11.030;2022-12-29T00:27:33;2.80;;;1.60;;
20397;SDS011;10358;49.590;11.030;2022-12-29T00:30:22;5.77;;;1.80;;
20397;SDS011;10358;49.590;11.030;2022-12-29T00:33:13;3.40;;;1.73;;
20397;SDS011;10358;49.590;11.030;2022-12-29T00:38:39;2.30;;;1.50;;
20397;SDS011;10358;49.590;11.030;2022-12-29T00:41:25;3.77;;;1.80;;
20397;SDS011;10358;49.590;11.030;2022-12-29T00:44:10;3.63;;;1.70;;
20397;SDS011;10358;49.590;11.030;2022-12-29T00:46:38;3.17;;;1.90;;
20397;SDS011;10358;49.590;11.030;2022-12-29T00:49:06;3.97;;;1.83;;
20397;SDS011;10358;49.590;11.030;2022-12-29T00:51:51;3.47;;;1.60;;
20397;SDS011;10358;49.590;11.030;2022-12-29T00:54:17;3.53;;;1.70;;
20397;SDS011;10358;49.590;11.030;2022-12-29T00:56:47;3.20;;;1.80;;
20397;SDS011;10358;49.590;11.030;2022-12-29T00:59:14;3.03;;;1.77;;
20397;SDS011;10358;49.590;11.030;2022-12-29T01:01:41;3.77;;;1.80;;
20397;SDS011;10358;49.590;11.030;2022-12-29T01:04:07;4.27;;;1.90;;
20397;SDS011;10358;49.590;11.030;2022-12-29T01:06:33;4.77;;;1.73;;
20397;SDS011;10358;49.590;11.030;2022-12-29T01:08:59;5.30;;;1.93;;
20397;SDS011;10358;49.590;11.030;2022-12-29T01:11:44;2.43;;;1.50;;
20397;SDS011;10358;49.590;11.030;2022-12-29T01:14:10;2.83;;;1.80;;
20397;SDS011;10358;49.590;11.030;2022-12-29T01:16:35;4.63;;;1.90;;
20397;SDS011;10358;49.590;11.030;2022-12-29T01:19:01;2.50;;;1.63;;
20397;SDS011;10358;49.590;11.030;2022-12-29T01:21:28;3.03;;;1.70;;
20397;SDS011;10358;49.590;11.030;2022-12-29T01:23:53;2.67;;;1.70;;
20397;SDS011;10358;49.590;11.030;2022-12-29T01:26:19;3.47;;;1.77;;
20397;SDS011;10358;49.590;11.030;2022-12-29T01:28:45;2.43;;;1.60;;
20397;SDS011;10358;49.590;11.030;2022-12-29T01:31:11;3.43;;;1.87;;
20397;SDS011;10358;49.590;11.030;2022-12-29T01:33:38;4.40;;;1.70;;
20397;SDS011;10358;49.590;11.030;2022-12-29T01:36:04;3.20;;;1.60;;
20397;SDS011;10358;49.590;11.030;2022-12-29T01:38:32;2.67;;;1.60;;
20397;SDS011;10358;49.590;11.030;2022-12-29T01:40:58;4.13;;;1.60;;
20397;SDS011;10358;49.590;11.030;2022-12-29T01:46:12;5.47;;;1.80;;
20397;SDS011;10358;49.590;11.030;2022-12-29T01:48:43;3.33;;;1.70;;
20397;SDS011;10358;49.590;11.030;2022-12-29T01:51:11;2.57;;;1.73;;
20397;SDS011;10358;49.590;11.030;2022-12-29T01:53:37;4.43;;;1.60;;
20397;SDS011;10358;49.590;11.030;2022-12-29T01:56:04;3.43;;;1.70;;
20397;SDS011;10358;49.590;11.030;2022-12-29T01:58:34;4.70;;;1.90;;
20397;SDS011;10358;49.590;11.030;2022-12-29T02:01:04;4.17;;;1.80;;
20397;SDS011;10358;49.590;11.030;2022-12-29T02:03:31;4.47;;;1.63;;
20397;SDS011;10358;49.590;11.030;2022-12-29T02:09:02;3.23;;;1.70;;
20397;SDS011;10358;49.590;11.030;2022-12-29T02:11:28;4.47;;;1.60;;
20397;SDS011;10358;49.590;11.030;2022-12-29T02:13:54;2.73;;;1.67;;
20397;SDS011;10358;49.590;11.030;2022-12-29T02:16:26;5.87;;;1.87;;
20397;SDS011;10358;49.590;11.030;2022-12-29T02:21:56;3.37;;;1.80;;
20397;SDS011;10358;49.590;11.030;2022-12-29T02:24:36;4.37;;;1.77;;
20397;SDS011;10358;49.590;11.030;2022-12-29T02:38:18;5.83;;;1.90;;
20397;SDS011;10358;49.590;11.030;2022-12-29T02:44:04;5.00;;;1.67;;
20397;SDS011;10358;49.590;11.030;2022-12-29T02:47:34;4.17;;;1.70;;
20397;SDS011;10358;49.590;11.030;2022-12-29T02:52:36;4.30;;;1.83;;
20397;SDS011;10358;49.590;11.030;2022-12-29T02:55:08;3.07;;;1.60;;
20397;SDS011;10358;49.590;11.030;2022-12-29T02:57:36;5.13;;;1.87;;
20397;SDS011;10358;49.590;11.030;2022-12-29T03:12:56;2.33;;;1.50;;
20397;SDS011;10358;49.590;11.030;2022-12-29T03:18:32;2.77;;;1.80;;
20397;SDS011;10358;49.590;11.030;2022-12-29T03:21:10;3.33;;;1.70;;
20397;SDS011;10358;49.590;11.030;2022-12-29T03:24:20;3.47;;;1.80;;
20397;SDS011;10358;49.590;11.030;2022-12-29T03:26:52;2.93;;;1.87;;
20397;SDS011;10358;49.590;11.030;2022-12-29T03:29:20;4.47;;;1.80;;
20397;SDS011;10358;49.590;11.030;2022-12-29T03:31:46;8.57;;;1.90;;
20397;SDS011;10358;49.590;11.030;2022-12-29T03:34:14;3.47;;;1.83;;
20397;SDS011;10358;49.590;11.030;2022-12-29T03:36:44;3.37;;;1.70;;
20397;SDS011;10358;49.590;11.030;2022-12-29T03:39:15;4.13;;;1.63;;
20397;SDS011;10358;49.590;11.030;2022-12-29T03:41:43;2.70;;;1.60;;
20397;SDS011;10358;49.590;11.030;2022-12-29T03:44:10;2.40;;;1.80;;
20397;SDS011;10358;49.590;11.030;2022-12-29T03:46:37;3.83;;;1.50;;
20397;SDS011;10358;49.590;11.030;2022-12-29T03:49:03;2.60;;;1.70;;
20397;SDS011;10358;49.590;11.030;2022-12-29T03:51:29;3.57;;;1.80;;
20397;SDS011;10358;49.590;11.030;2022-12-29T03:53:54;4.93;;;1.70;;
20397;SDS011;10358;49.590;11.030;2022-12-29T03:56:20;3.97;;;1.90;;
20397;SDS011;10358;49.590;11.030;2022-12-29T03:58:45;4.13;;;1.53;;
20397;SDS011;10358;49.590;11.030;2022-12-29T04:01:11;3.67;;;1.80;;
20397;SDS011;10358;49.590;11.030;2022-12-29T04:03:36;4.37;;;1.87;;
20397;SDS011;10358;49.590;11.030;2022-12-29T04:06:02;4.30;;;1.60;;
20397;SDS011;10358;49.590;11.030;2022-12-29T04:08:27;3.57;;;1.90;;
20397;SDS011;10358;49.590;11.030;2022-12-29T04:10:53;4.33;;;1.60;;
20397;SDS011;10358;49.590;11.030;2022-12-29T04:13:18;3.17;;;1.80;;
20397;SDS011;10358;49.590;11.030;2022-12-29T04:15:44;4.00;;;1.57;;
20397;SDS011;10358;49.590;11.030;2022-12-29T04:18:10;4.17;;;1.90;;
20397;SDS011;10358;49.590;11.030;2022-12-29T04:20:39;4.97;;;1.57;;
20397;SDS011;10358;49.590;11.030;2022-12-29T04:23:23;3.63;;;1.70;;
20397;SDS011;10358;49.590;11.030;2022-12-29T04:25:48;3.00;;;1.67;;
20397;SDS011;10358;49.590;11.030;2022-12-29T04:28:14;2.23;;;1.40;;
20397;SDS011;10358;49.590;11.030;2022-12-29T04:30:40;2.57;;;1.63;;
20397;SDS011;10358;49.590;11.030;2022-12-29T04:33:07;3.60;;;2.10;;
20397;SDS011;10358;49.590;11.030;2022-12-29T04:35:32;3.40;;;1.80;;
20397;SDS011;10358;49.590;11.030;2022-12-29T04:37:58;3.60;;;1.97;;
20397;SDS011;10358;49.590;11.030;2022-12-29T04:40:23;3.60;;;1.80;;
20397;SDS011;10358;49.590;11.030;2022-12-29T04:42:49;3.37;;;1.97;;
20397;SDS011;10358;49.590;11.030;2022-12-29T04:45:15;4.00;;;2.00;;
20397;SDS011;10358;49.590;11.030;2022-12-29T04:47:40;4.37;;;1.90;;
20397;SDS011;10358;49.590;11.030;2022-12-29T04:50:06;4.50;;;2.10;;
20397;SDS011;10358;49.590;11.030;2022-12-29T04:52:32;3.80;;;1.67;;
20397;SDS011;10358;49.590;11.030;2022-12-29T04:54:57;5.07;;;1.80;;
20397;SDS011;10358;49.590;11.030;2022-12-29T04:57:23;3.57;;;1.80;;
20397;SDS011;10358;49.590;11.030;2022-12-29T04:59:49;2.47;;;1.50;;
20397;SDS011;10358;49.590;11.030;2022-12-29T05:02:14;5.37;;;1.90;;
20397;SDS011;10358;49.590;11.030;2022-12-29T05:04:40;8.00;;;1.80;;
20397;SDS011;10358;49.590;11.030;2022-12-29T05:07:06;2.90;;;1.47;;
20397;SDS011;10358;49.590;11.030;2022-12-29T05:09:32;2.80;;;1.60;;
20397;SDS011;10358;49.590;11.030;2022-12-29T05:11:57;3.90;;;2.10;;
20397;SDS011;10358;49.590;11.030;2022-12-29T05:14:23;3.23;;;1.50;;
20397;SDS011;10358;49.590;11.030;2022-12-29T05:16:48;2.23;;;1.53;;
20397;SDS011;10358;49.590;11.030;2022-12-29T05:19:14;3.47;;;1.63;;
20397;SDS011;10358;49.590;11.030;2022-12-29T05:21:39;2.07;;;1.47;;
20397;SDS011;10358;49.590;11.030;2022-12-29T05:24:05;6.23;;;1.60;;
20397;SDS011;10358;49.590;11.030;2022-12-29T05:26:31;3.77;;;2.00;;
20397;SDS011;10358;49.590;11.030;2022-12-29T05:28:56;3.10;;;1.77;;
20397;SDS011;10358;49.590;11.030;2022-12-29T05:31:22;3.13;;;1.80;;
20397;SDS011;10358;49.590;11.030;2022-12-29T05:33:47;5.57;;;1.57;;
20397;SDS011;10358;49.590;11.030;2022-12-29T05:36:13;2.97;;;1.73;;
20397;SDS011;10358;49.590;11.030;2022-12-29T05:38:38;3.00;;;1.60;;
20397;SDS011;10358;49.590;11.030;2022-12-29T05:41:04;3.73;;;1.63;;
20397;SDS011;10358;49.590;11.030;2022-12-29T05:43:29;2.83;;;1.70;;
20397;SDS011;10358;49.590;11.030;2022-12-29T05:45:55;3.17;;;1.73;;
20397;SDS011;10358;49.590;11.030;2022-12-29T05:48:21;3.00;;;1.80;;
20397;SDS011;10358;49.590;11.030;2022-12-29T05:50:47;6.60;;;1.67;;
20397;SDS011;10358;49.590;11.030;2022-12-29T05:53:14;3.30;;;1.60;;
20397;SDS011;10358;49.590;11.030;2022-12-29T05:55:39;6.93;;;1.90;;
20397;SDS011;10358;49.590;11.030;2022-12-29T05:58:05;6.07;;;1.70;;
20397;SDS011;10358;49.590;11.030;2022-12-29T06:00:31;4.77;;;1.60;;
20397;SDS011;10358;49.590;11.030;2022-12-29T06:02:56;2.93;;;1.60;;
20397;SDS011;10358;49.590;11.030;2022-12-29T06:05:22;4.17;;;1.90;;
20397;SDS011;10358;49.590;11.030;2022-12-29T06:07:47;5.50;;;2.00;;
20397;SDS011;10358;49.590;11.030;2022-12-29T06:10:13;2.80;;;1.63;;
20397;SDS011;10358;49.590;11.030;2022-12-29T06:12:39;4.53;;;2.20;;
20397;SDS011;10358;49.590;11.030;2022-12-29T06:15:04;2.27;;;1.50;;
20397;SDS011;10358;49.590;11.030;2022-12-29T06:17:30;3.70;;;1.70;;
20397;SDS011;10358;49.590;11.030;2022-12-29T06:19:56;4.53;;;1.90;;
20397;SDS011;10358;49.590;11.030;2022-12-29T06:22:21;2.40;;;1.50;;
20397;SDS011;10358;49.590;11.030;2022-12-29T06:24:47;4.20;;;1.53;;
20397;SDS011;10358;49.590;11.030;2022-12-29T06:27:12;3.37;;;1.90;;
20397;SDS011;10358;49.590;11.030;2022-12-29T06:29:38;3.70;;;1.77;;
20397;SDS011;10358;49.590;11.030;2022-12-29T06:32:05;4.60;;;1.60;;
20397;SDS011;10358;49.590;11.030;2022-12-29T06:34:31;4.10;;;1.83;;
20397;SDS011;10358;49.590;11.030;2022-12-29T06:36:57;2.90;;;1.73;;
20397;SDS011;10358;49.590;11.030;2022-12-29T06:39:23;3.43;;;1.50;;
20397;SDS011;10358;49.590;11.030;2022-12-29T06:41:51;5.43;;;1.60;;
20397;SDS011;10358;49.590;11.030;2022-12-29T06:44:17;3.50;;;1.80;;
20397;SDS011;10358;49.590;11.030;2022-12-29T06:46:42;3.00;;;1.80;;
20397;SDS011;10358;49.590;11.030;2022-12-29T06:49:08;2.57;;;1.47;;
20397;SDS011;10358;49.590;11.030;2022-12-29T06:51:33;2.90;;;1.40;;
20397;SDS011;10358;49.590;11.030;2022-12-29T06:53:59;3.30;;;1.83;;
20397;SDS011;10358;49.590;11.030;2022-12-29T06:56:24;2.77;;;1.70;;
20397;SDS011;10358;49.590;11.030;2022-12-29T06:58:50;3.23;;;1.60;;
20397;SDS011;10358;49.590;11.030;2022-12-29T07:01:15;3.33;;;1.60;;
20397;SDS011;10358;49.590;11.030;2022-12-29T07:03:41;3.00;;;1.57;;
20397;SDS011;10358;49.590;11.030;2022-12-29T07:06:07;7.00;;;1.70;;
20397;SDS011;10358;49.590;11.030;2022-12-29T07:08:33;5.37;;;1.70;;
20397;SDS011;10358;49.590;11.030;2022-12-29T07:10:59;4.00;;;1.77;;
20397;SDS011;10358;49.590;11.030;2022-12-29T07:13:24;4.27;;;1.63;;
20397;SDS011;10358;49.590;11.030;2022-12-29T07:15:50;4.80;;;1.60;;
20397;SDS011;10358;49.590;11.030;2022-12-29T07:18:15;3.97;;;1.87;;
20397;SDS011;10358;49.590;11.030;2022-12-29T07:20:41;5.10;;;1.90;;
20397;SDS011;10358;49.590;11.030;2022-12-29T07:23:06;2.53;;;1.70;;
20397;SDS011;10358;49.590;11.030;2022-12-29T07:25:32;4.47;;;1.70;;
20397;SDS011;10358;49.590;11.030;2022-12-29T07:27:59;3.17;;;1.53;;
20397;SDS011;10358;49.590;11.030;2022-12-29T07:30:25;3.80;;;1.73;;
20397;SDS011;10358;49.590;11.030;2022-12-29T07:32:51;3.10;;;1.77;;
20397;SDS011;10358;49.590;11.030;2022-12-29T07:35:16;3.83;;;1.67;;
20397;SDS011;10358;49.590;11.030;2022-12-29T07:37:42;4.80;;;1.67;;
20397;SDS011;10358;49.590;11.030;2022-12-29T07:40:08;4.70;;;1.90;;
20397;SDS011;10358;49.590;11.030;2022-12-29T07:42:35;4.97;;;1.90;;
20397;SDS011;10358;49.590;11.030;2022-12-29T07:45:00;7.10;;;2.10;;
20397;SDS011;10358;49.590;11.030;2022-12-29T07:47:26;4.53;;;1.80;;
20397;SDS011;10358;49.590;11.030;2022-12-29T07:49:52;4.37;;;1.70;;
20397;SDS011;10358;49.590;11.030;2022-12-29T07:52:18;5.23;;;1.80;;
20397;SDS011;10358;49.590;11.030;2022-12-29T07:54:43;4.17;;;1.60;;
20397;SDS011;10358;49.590;11.030;2022-12-29T07:57:09;3.43;;;1.70;;
20397;SDS011;10358;49.590;11.030;2022-12-29T07:59:34;5.83;;;1.40;;
20397;SDS011;10358;49.590;11.030;2022-12-29T08:02:00;3.23;;;1.70;;
20397;SDS011;10358;49.590;11.030;2022-12-29T08:04:26;3.67;;;1.70;;
20397;SDS011;10358;49.590;11.030;2022-12-29T08:06:51;3.27;;;1.70;;
20397;SDS011;10358;49.590;11.030;2022-12-29T08:09:17;3.30;;;1.40;;
20397;SDS011;10358;49.590;11.030;2022-12-29T08:11:42;2.37;;;1.50;;
20397;SDS011;10358;49.590;11.030;2022-12-29T08:14:09;1.83;;;1.43;;
20397;SDS011;10358;49.590;11.030;2022-12-29T08:16:34;3.70;;;1.53;;
20397;SDS011;10358;49.590;11.030;2022-12-29T08:19:00;2.80;;;1.47;;
20397;SDS011;10358;49.590;11.030;2022-12-29T08:21:29;3.73;;;1.50;;
20397;SDS011;10358;49.590;11.030;2022-12-29T08:23:55;3.53;;;1.60;;
20397;SDS011;10358;49.590;11.030;2022-12-29T08:26:20;1.93;;;1.37;;
20397;SDS011;10358;49.590;11.030;2022-12-29T08:28:46;4.80;;;1.50;;
20397;SDS011;10358;49.590;11.030;2022-12-29T08:31:12;4.17;;;1.60;;
20397;SDS011;10358;49.590;11.030;2022-12-29T08:33:37;5.90;;;1.60;;
20397;SDS011;10358;49.590;11.030;2022-12-29T08:36:04;2.77;;;1.40;;
20397;SDS011;10358;49.590;11.030;2022-12-29T08:38:31;5.07;;;1.87;;
20397;SDS011;10358;49.590;11.030;2022-12-29T08:40:57;2.57;;;1.53;;
20397;SDS011;10358;49.590;11.030;2022-12-29T08:43:24;4.43;;;1.67;;
20397;SDS011;10358;49.590;11.030;2022-12-29T08:45:50;2.63;;;1.50;;
20397;SDS011;10358;49.590;11.030;2022-12-29T08:48:15;4.60;;;1.70;;
20397;SDS011;10358;49.590;11.030;2022-12-29T08:50:44;2.53;;;1.50;;
20397;SDS011;10358;49.590;11.030;2022-12-29T08:53:10;3.67;;;1.77;;
20397;SDS011;10358;49.590;11.030;2022-12-29T08:55:36;3.00;;;1.77;;
20397;SDS011;10358;49.590;11.030;2022-12-29T08:58:02;3.40;;;1.70;;
20397;SDS011;10358;49.590;11.030;2022-12-29T09:00:27;2.97;;;1.57;;
20397;SDS011;10358;49.590;11.030;2022-12-29T09:02:53;2.83;;;1.57;;
20397;SDS011;10358;49.590;11.030;2022-12-29T09:05:18;3.90;;;1.53;;
20397;SDS011;10358;49.590;11.030;2022-12-29T09:07:44;5.90;;;1.90;;
20397;SDS011;10358;49.590;11.030;2022-12-29T09:10:09;5.23;;;2.07;;
20397;SDS011;10358;49.590;11.030;2022-12-29T09:12:35;2.97;;;1.70;;
20397;SDS011;10358;49.590;11.030;2022-12-29T09:15:01;3.83;;;1.60;;
20397;SDS011;10358;49.590;11.030;2022-12-29T09:17:26;5.00;;;1.83;;
20397;SDS011;10358;49.590;11.030;2022-12-29T09:20:18;4.23;;;1.80;;
20397;SDS011;10358;49.590;11.030;2022-12-29T09:22:44;4.23;;;1.60;;
20397;SDS011;10358;49.590;11.030;2022-12-29T09:25:11;3.30;;;1.70;;
20397;SDS011;10358;49.590;11.030;2022-12-29T09:27:37;3.77;;;1.70;;
20397;SDS011;10358;49.590;11.030;2022-12-29T09:30:04;3.33;;;1.57;;
20397;SDS011;10358;49.590;11.030;2022-12-29T09:32:31;2.83;;;1.50;;
20397;SDS011;10358;49.590;11.030;2022-12-29T09:34:57;5.57;;;1.60;;
20397;SDS011;10358;49.590;11.030;2022-12-29T09:37:22;3.93;;;1.60;;
20397;SDS011;10358;49.590;11.030;2022-12-29T09:39:48;2.97;;;1.53;;
20397;SDS011;10358;49.590;11.030;2022-12-29T09:44:51;5.30;;;1.70;;
20397;SDS011;10358;49.590;11.030;2022-12-29T09:47:23;3.10;;;1.60;;
20397;SDS011;10358;49.590;11.030;2022-12-29T09:49:54;2.30;;;1.57;;
20397;SDS011;10358;49.590;11.030;2022-12-29T09:52:29;3.87;;;1.30;;
20397;SDS011;10358;49.590;11.030;2022-12-29T09:55:19;4.10;;;1.80;;
20397;SDS011;10358;49.590;11.030;2022-12-29T09:57:55;3.53;;;1.50;;
20397;SDS011;10358;49.590;11.030;2022-12-29T10:00:28;5.20;;;1.87;;
20397;SDS011;10358;49.590;11.030;2022-12-29T10:03:11;5.00;;;1.73;;
20397;SDS011;10358;49.590;11.030;2022-12-29T10:11:24;5.67;;;1.77;;
20397;SDS011;10358;49.590;11.030;2022-12-29T10:16:34;6.87;;;2.10;;
20397;SDS011;10358;49.590;11.030;2022-12-29T10:19:18;5.33;;;1.70;;
20397;SDS011;10358;49.590;11.030;2022-12-29T10:24:27;4.07;;;1.80;;
20397;SDS011;10358;49.590;11.030;2022-12-29T10:26:55;3.50;;;1.70;;
20397;SDS011;10358;49.590;11.030;2022-12-29T10:29:32;6.13;;;1.70;;
20397;SDS011;10358;49.590;11.030;2022-12-29T10:32:14;4.23;;;1.83;;
20397;SDS011;10358;49.590;11.030;2022-12-29T10:34:49;3.07;;;1.80;;
20397;SDS011;10358;49.590;11.030;2022-12-29T10:40:15;3.73;;;1.47;;
20397;SDS011;10358;49.590;11.030;2022-12-29T10:42:58;4.70;;;1.53;;
20397;SDS011;10358;49.590;11.030;2022-12-29T10:45:28;2.00;;;1.40;;
20397;SDS011;10358;49.590;11.030;2022-12-29T10:48:02;5.27;;;1.60;;
20397;SDS011;10358;49.590;11.030;2022-12-29T10:50:40;2.20;;;1.30;;
20397;SDS011;10358;49.590;11.030;2022-12-29T10:53:07;3.23;;;1.57;;
20397;SDS011;10358;49.590;11.030;2022-12-29T10:55:42;4.23;;;1.60;;
20397;SDS011;10358;49.590;11.030;2022-12-29T10:58:10;3.93;;;1.40;;
20397;SDS011;10358;49.590;11.030;2022-12-29T11:00:38;6.00;;;1.50;;
20397;SDS011;10358;49.590;11.030;2022-12-29T11:03:14;5.30;;;1.50;;
20397;SDS011;10358;49.590;11.030;2022-12-29T11:08:46;2.60;;;1.50;;
20397;SDS011;10358;49.590;11.030;2022-12-29T11:11:22;5.00;;;1.40;;
20397;SDS011;10358;49.590;11.030;2022-12-29T11:13:57;3.67;;;1.93;;
20397;SDS011;10358;49.590;11.030;2022-12-29T11:16:27;2.93;;;1.30;;
20397;SDS011;10358;49.590;11.030;2022-12-29T11:18:58;3.43;;;1.70;;
20397;SDS011;10358;49.590;11.030;2022-12-29T11:23:59;5.50;;;1.77;;
20397;SDS011;10358;49.590;11.030;2022-12-29T11:26:30;3.47;;;1.50;;
20397;SDS011;10358;49.590;11.030;2022-12-29T11:29:15;3.70;;;1.50;;
20397;SDS011;10358;49.590;11.030;2022-12-29T11:31:52;4.67;;;1.73;;
20397;SDS011;10358;49.590;11.030;2022-12-29T11:34:25;3.50;;;1.60;;
20397;SDS011;10358;49.590;11.030;2022-12-29T11:37:00;3.37;;;1.60;;
20397;SDS011;10358;49.590;11.030;2022-12-29T11:42:06;5.47;;;1.60;;
20397;SDS011;10358;49.590;11.030;2022-12-29T11:44:46;2.97;;;1.57;;
20397;SDS011;10358;49.590;11.030;2022-12-29T11:47:20;3.43;;;1.60;;
20397;SDS011;10358;49.590;11.030;2022-12-29T11:49:52;3.87;;;1.60;;
20397;SDS011;10358;49.590;11.030;2022-12-29T11:52:25;4.67;;;1.73;;
20397;SDS011;10358;49.590;11.030;2022-12-29T11:54:53;3.87;;;1.70;;
20397;SDS011;10358;49.590;11.030;2022-12-29T11:57:19;5.07;;;1.50;;
20397;SDS011;10358;49.590;11.030;2022-12-29T12:04:45;6.73;;;1.90;;
20397;SDS011;10358;49.590;11.030;2022-12-29T12:07:18;2.90;;;1.40;;
20397;SDS011;10358;49.590;11.030;2022-12-29T12:09:54;3.73;;;1.77;;
20397;SDS011;10358;49.590;11.030;2022-12-29T12:15:12;4.33;;;1.70;;
20397;SDS011;10358;49.590;11.030;2022-12-29T12:21:08;3.47;;;1.80;;
20397;SDS011;10358;49.590;11.030;2022-12-29T12:26:13;5.50;;;2.00;;
20397;SDS011;10358;49.590;11.030;2022-12-29T12:28:54;3.60;;;1.80;;
20397;SDS011;10358;49.590;11.030;2022-12-29T12:42:51;3.43;;;1.67;;
20397;SDS011;10358;49.590;11.030;2022-12-29T12:45:39;4.03;;;1.70;;
20397;SDS011;10358;49.590;11.030;2022-12-29T12:59:30;8.97;;;1.90;;
20397;SDS011;10358;49.590;11.030;2022-12-29T13:07:48;5.20;;;1.90;;
20397;SDS011;10358;49.590;11.030;2022-12-29T13:10:34;3.73;;;1.77;;
20397;SDS011;10358;49.590;11.030;2022-12-29T13:16:33;5.40;;;2.10;;
20397;SDS011;10358;49.590;11.030;2022-12-29T13:19:25;6.97;;;2.13;;
20397;SDS011;10358;49.590;11.030;2022-12-29T13:33:39;4.90;;;1.93;;
20397;SDS011;10358;49.590;11.030;2022-12-29T13:39:03;5.50;;;2.07;;
20397;SDS011;10358;49.590;11.030;2022-12-29T13:41:46;5.17;;;1.97;;
20397;SDS011;10358;49.590;11.030;2022-12-29T13:44:16;3.83;;;1.70;;
20397;SDS011;10358;49.590;11.030;2022-12-29T13:46:47;3.73;;;1.83;;
20397;SDS011;10358;49.590;11.030;2022-12-29T13:49:18;3.60;;;2.00;;
20397;SDS011;10358;49.590;11.030;2022-12-29T13:51:48;4.60;;;1.97;;
20397;SDS011;10358;49.590;11.030;2022-12-29T13:54:28;4.40;;;1.80;;
20397;SDS011;10358;49.590;11.030;2022-12-29T14:00:18;3.90;;;1.93;;
20397;SDS011;10358;49.590;11.030;2022-12-29T14:07:45;5.50;;;2.10;;
20397;SDS011;10358;49.590;11.030;2022-12-29T14:13:16;3.97;;;2.10;;
20397;SDS011;10358;49.590;11.030;2022-12-29T14:15:45;4.13;;;1.80;;
20397;SDS011;10358;49.590;11.030;2022-12-29T14:18:17;8.67;;;2.30;;
20397;SDS011;10358;49.590;11.030;2022-12-29T14:20:59;4.93;;;2.30;;
20397;SDS011;10358;49.590;11.030;2022-12-29T14:28:46;5.67;;;2.10;;
20397;SDS011;10358;49.590;11.030;2022-12-29T14:33:39;4.50;;;1.93;;
20397;SDS011;10358;49.590;11.030;2022-12-29T14:38:48;5.03;;;2.43;;
20397;SDS011;10358;49.590;11.030;2022-12-29T14:41:32;4.17;;;2.40;;
20397;SDS011;10358;49.590;11.030;2022-12-29T14:46:43;6.37;;;3.37;;
20397;SDS011;10358;49.590;11.030;2022-12-29T14:49:22;6.07;;;2.97;;
20397;SDS011;10358;49.590;11.030;2022-12-29T14:51:53;4.40;;;2.63;;
20397;SDS011;10358;49.590;11.030;2022-12-29T14:57:02;6.60;;;3.10;;
20397;SDS011;10358;49.590;11.030;2022-12-29T14:59:30;4.93;;;2.93;;
20397;SDS011;10358;49.590;11.030;2022-12-29T15:02:00;8.00;;;2.93;;
20397;SDS011;10358;49.590;11.030;2022-12-29T15:04:32;6.43;;;2.80;;
20397;SDS011;10358;49.590;11.030;2022-12-29T15:07:00;4.90;;;2.87;;
20397;SDS011;10358;49.590;11.030;2022-12-29T15:09:33;7.30;;;3.10;;
20397;SDS011;10358;49.590;11.030;2022-12-29T15:14:58;4.67;;;2.93;;
20397;SDS011;10358;49.590;11.030;2022-12-29T15:17:29;5.23;;;2.80;;
20397;SDS011;10358;49.590;11.030;2022-12-29T15:19:56;5.20;;;2.83;;
20397;SDS011;10358;49.590;11.030;2022-12-29T15:22:24;9.47;;;3.60;;
20397;SDS011;10358;49.590;11.030;2022-12-29T15:24:53;7.57;;;3.20;;
20397;SDS011;10358;49.590;11.030;2022-12-29T15:27:24;7.97;;;3.00;;
20397;SDS011;10358;49.590;11.030;2022-12-29T15:29:58;6.70;;;2.87;;
20397;SDS011;10358;49.590;11.030;2022-12-29T15:32:29;6.53;;;2.93;;
20397;SDS011;10358;49.590;11.030;2022-12-29T15:35:13;4.97;;;2.60;;
20397;SDS011;10358;49.590;11.030;2022-12-29T15:37:46;18.67;;;9.97;;
20397;SDS011;10358;49.590;11.030;2022-12-29T15:40:21;44.77;;;20.67;;
20397;SDS011;10358;49.590;11.030;2022-12-29T15:42:58;57.13;;;28.53;;
20397;SDS011;10358;49.590;11.030;2022-12-29T15:45:46;40.97;;;16.73;;
20397;SDS011;10358;49.590;11.030;2022-12-29T15:48:16;15.63;;;6.97;;
20397;SDS011;10358;49.590;11.030;2022-12-29T15:50:44;8.67;;;4.93;;
20397;SDS011;10358;49.590;11.030;2022-12-29T15:53:11;6.93;;;3.43;;
20397;SDS011;10358;49.590;11.030;2022-12-29T15:55:43;11.53;;;6.10;;
20397;SDS011;10358;49.590;11.030;2022-12-29T15:58:18;9.17;;;3.80;;
20397;SDS011;10358;49.590;11.030;2022-12-29T16:00:47;6.20;;;3.00;;
20397;SDS011;10358;49.590;11.030;2022-12-29T16:03:22;8.67;;;3.60;;
20397;SDS011;10358;49.590;11.030;2022-12-29T16:05:51;6.57;;;2.67;;
20397;SDS011;10358;49.590;11.030;2022-12-29T16:08:28;7.30;;;2.77;;
20397;SDS011;10358;49.590;11.030;2022-12-29T16:11:03;6.90;;;3.47;;
20397;SDS011;10358;49.590;11.030;2022-12-29T16:13:53;9.37;;;4.40;;
20397;SDS011;10358;49.590;11.030;2022-12-29T16:16:22;6.47;;;3.50;;
20397;SDS011;10358;49.590;11.030;2022-12-29T16:18:53;7.50;;;3.33;;
20397;SDS011;10358;49.590;11.030;2022-12-29T16:21:25;5.40;;;2.73;;
20397;SDS011;10358;49.590;11.030;2022-12-29T16:23:54;3.63;;;2.27;;
20397;SDS011;10358;49.590;11.030;2022-12-29T16:26:23;4.80;;;2.93;;
20397;SDS011;10358;49.590;11.030;2022-12-29T16:28:50;5.00;;;2.60;;
20397;SDS011;10358;49.590;11.030;2022-12-29T16:31:21;4.47;;;2.53;;
20397;SDS011;10358;49.590;11.030;2022-12-29T16:33:53;9.50;;;2.70;;
20397;SDS011;10358;49.590;11.030;2022-12-29T16:38:49;5.00;;;2.77;;
20397;SDS011;10358;49.590;11.030;2022-12-29T16:41:30;5.53;;;3.27;;
20397;SDS011;10358;49.590;11.030;2022-12-29T16:44:12;6.00;;;3.20;;
20397;SDS011;10358;49.590;11.030;2022-12-29T16:47:05;4.77;;;3.20;;
20397;SDS011;10358;49.590;11.030;2022-12-29T16:49:46;5.27;;;2.97;;
20397;SDS011;10358;49.590;11.030;2022-12-29T16:52:20;6.07;;;2.90;;
20397;SDS011;10358;49.590;11.030;2022-12-29T16:54:52;7.90;;;3.60;;
20397;SDS011;10358;49.590;11.030;2022-12-29T16:57:21;5.57;;;2.87;;
20397;SDS011;10358;49.590;11.030;2022-12-29T16:59:50;3.87;;;2.50;;
20397;SDS011;10358;49.590;11.030;2022-12-29T17:02:19;5.90;;;2.70;;
20397;SDS011;10358;49.590;11.030;2022-12-29T17:04:46;6.97;;;3.37;;
20397;SDS011;10358;49.590;11.030;2022-12-29T17:07:18;6.07;;;2.60;;
20397;SDS011;10358;49.590;11.030;2022-12-29T17:09:49;5.90;;;3.00;;
20397;SDS011;10358;49.590;11.030;2022-12-29T17:12:18;3.93;;;2.70;;
20397;SDS011;10358;49.590;11.030;2022-12-29T17:14:47;7.27;;;3.23;;
20397;SDS011;10358;49.590;11.030;2022-12-29T17:19:51;4.60;;;2.50;;
20397;SDS011;10358;49.590;11.030;2022-12-29T17:22:20;6.67;;;2.53;;
20397;SDS011;10358;49.590;11.030;2022-12-29T17:24:51;4.47;;;2.80;;
20397;SDS011;10358;49.590;11.030;2022-12-29T17:27:24;5.80;;;2.63;;
20397;SDS011;10358;49.590;11.030;2022-12-29T17:29:54;5.87;;;4.13;;
20397;SDS011;10358;49.590;11.030;2022-12-29T17:32:22;8.93;;;4.97;;
20397;SDS011;10358;49.590;11.030;2022-12-29T17:34:48;12.17;;;4.07;;